Pagina principale
METAR-TAF:

METAR-TAF

Aeroporti :

Aeroporto Internazionale di Tokyo

Tokyo-Haneda, Giappone

latitudine: 35-33N, longitudine: 139-47E, altezza: 5 m

Osservazione

Il bollettino è stato emesso 20 minuti fa, alle 23:00 UTC
Vento 13 kt da sud
Temperature 30°C
Umidità 79%
Pressione 1011 hPa
Visibilità 10 km o più
Poco nuvoloso ad un'altezza di 2000 ft

METAR: RJTT 192300Z 18013KT 9999 FEW020 30/26 Q1011 NOSIG RMK 1CU020 A2988

Ora: 08:20 (23:20 UTC)

Previsione

Il bollettino è stato emesso 1 ora e 55 minuti fa, alle 21:25 UTC
Previsione valida dal 19 alle 21 UTC al 21 alle 00 UTC
Vento 16 kt da sud
Visibilità 10 km o più
Poco nuvoloso ad un'altezza di 2000 ft
Temporaneamente
dal 20 alle 03 UTC al 20 alle 12 UTC
Vento 22 kt da sud con raffiche fino a 32 kt

TAF: RJTT 192125Z 1921/2100 18016KT 9999 FEW020 TEMPO 2003/2012 19022G32KT

Osservazioni e previsioni meteorologiche di più di 4000 aeroporti (messaggi METAR e TAF).

Le stazioni disponibili sono rappresentate dai dischi gialli e rossi sulla carta.

Puntare il mouse per vedere il nome della stazione.

Clicca sopra per visualizzare le osservazioni e previsioni meteorologiche.

Per cambiare la mappa : fare clic sui pulsanti verdi con una croce nera per ingrandire, il pulsante verde con un trattino per diminuire, o sulla freccia verde per le mappe adiacenti.


METAR-TAF: